フォルタレザ の空港の天気 - METARとTAF

フォルタレザ/ピント・マーティンズ国際空港 ( SBFZ / FOR ) - ブラジル セアラー州フォルタレザ
飛行場実況気象(Metar)
観測時間09/22 20:00 BRT (09/22 23:00 UTC)
風向・風速東 4m/s
視程10km以上
天気現象
少しの雲 雲底高度 520m
気温26℃
湿度84%
気圧1011hPa
METARSBFZ 222300Z 08008KT 9999 FEW017 26/23 Q1011
過去の天気等 Google飛行場航空写真 Wunderground天気予報

過去48時間のMETAR

飛行場予報(TAF)
発表時間: 9/22 19:00 BRT (9/22 22:00 UTC)
予報対象時間: 22日21時 BRT ~ 23日21時 BRT
風向・風速東 5m/s
視程10km以上
なし
23日0時 BRT ~ 23日2時 BRT に徐々に
視程10km以上
全天の4割程度の雲 雲底高度 610m
23日3時 BRT ~ 23日4時 BRT に徐々に
風向・風速南東 6m/s
23日10時 BRT ~ 23日12時 BRT に徐々に
風向・風速東 9m/s
23日18時 BRT ~ 23日20時 BRT に徐々に
風向・風速東 6m/s
TAF SBFZ 222200Z 2300/2324 09010KT CAVOK TN25/2309Z TX31/2315Z
BECMG 2303/2305 9999 SCT020
BECMG 2306/2307 13011KT
BECMG 2313/2315 09018KT
BECMG 2321/2323 09012KT RMK PEU